Time;durP1;ratioP1;P1;durP2;ratioP2;P2;SDS_P1;SDS_P2;PMS_P1;PMS_P2;Temp;Humidity;BMP_temperature;BMP_pressure;BME280_temperature;BME280_humidity;BME280_pressure;Samples;Min_cycle;Max_cycle;Signal;HPM_P1;HPM_P2
2021/12/22 00:02:02;;;;;;;16.87;12.57;;;0.10;99.90;;;;;;5088495;28;20405;-57
2021/12/22 00:04:27;;;;;;;15.20;11.48;;;0.10;99.90;;;;;;5087942;28;20812;-58
2021/12/22 00:06:53;;;;;;;17.02;11.63;;;0.10;99.90;;;;;;5087382;28;20386;-58
2021/12/22 00:09:19;;;;;;;16.65;11.82;;;0.10;99.90;;;;;;5086119;28;20523;-56
2021/12/22 00:11:45;;;;;;;14.30;10.48;;;-0.10;99.90;;;;;;5086392;28;20536;-56
2021/12/22 00:14:11;;;;;;;15.20;11.20;;;0.00;99.90;;;;;;5086340;28;20600;-58
2021/12/22 00:16:37;;;;;;;16.08;10.85;;;-0.10;99.90;;;;;;5085242;28;20417;-58
2021/12/22 00:19:03;;;;;;;13.35;11.00;;;0.00;99.90;;;;;;5086267;28;20402;-58
2021/12/22 00:21:29;;;;;;;14.43;11.40;;;0.00;99.90;;;;;;5086620;28;20388;-55
2021/12/22 00:23:55;;;;;;;14.45;11.18;;;0.10;99.90;;;;;;5085560;28;20401;-56
2021/12/22 00:26:21;;;;;;;14.57;10.65;;;0.20;99.90;;;;;;5085845;28;20788;-57
2021/12/22 00:28:47;;;;;;;16.20;10.80;;;0.20;99.90;;;;;;5090495;28;20585;-52
2021/12/22 00:31:14;;;;;;;12.68;10.18;;;0.20;99.90;;;;;;5092099;28;20405;-56
2021/12/22 00:33:50;;;;;;;14.65;11.40;;;0.30;99.90;;;;;;5094602;28;20386;-55
2021/12/22 00:36:17;;;;;;;14.03;9.87;;;0.30;99.90;;;;;;5093812;28;20386;-53
2021/12/22 00:38:44;;;;;;;15.32;10.80;;;0.30;99.90;;;;;;5093908;28;20702;-57
2021/12/22 00:41:10;;;;;;;13.27;10.13;;;0.20;99.90;;;;;;5094687;28;20405;-51
2021/12/22 00:43:36;;;;;;;15.73;11.07;;;0.10;99.90;;;;;;5093013;28;20678;-54
2021/12/22 00:46:01;;;;;;;12.13;9.90;;;0.10;99.90;;;;;;5092264;28;20455;-49
2021/12/22 00:48:27;;;;;;;13.83;10.37;;;0.20;99.90;;;;;;5093650;28;20494;-55
2021/12/22 00:50:53;;;;;;;13.27;10.80;;;0.00;99.90;;;;;;5092357;28;20382;-56
2021/12/22 00:53:19;;;;;;;15.73;11.10;;;-0.10;99.90;;;;;;5091230;28;20381;-55
2021/12/22 00:55:45;;;;;;;12.77;10.93;;;-0.20;99.90;;;;;;5090813;28;20374;-54
2021/12/22 00:58:10;;;;;;;13.88;10.75;;;-0.20;99.90;;;;;;5092083;28;20381;-55
2021/12/22 01:00:36;;;;;;;13.83;10.40;;;-0.50;99.90;;;;;;5091974;28;20394;-55
2021/12/22 01:03:02;;;;;;;14.27;10.30;;;-0.50;99.90;;;;;;5091772;28;20386;-55
2021/12/22 01:05:29;;;;;;;13.52;10.27;;;-0.60;99.90;;;;;;5090397;28;20412;-52
2021/12/22 01:07:54;;;;;;;13.70;10.67;;;-0.40;99.90;;;;;;5089836;28;20390;-55
2021/12/22 01:10:26;;;;;;;12.43;9.97;;;-0.30;99.90;;;;;;5091023;28;20404;-57
2021/12/22 01:12:55;;;;;;;10.77;8.88;;;-0.20;99.90;;;;;;5094399;28;20770;-54
2021/12/22 01:15:23;;;;;;;14.82;10.23;;;0.00;99.90;;;;;;5094088;28;20388;-55
2021/12/22 01:17:57;;;;;;;12.02;9.77;;;0.00;99.90;;;;;;5093477;28;20473;-54
2021/12/22 01:20:28;;;;;;;13.65;10.02;;;0.00;99.90;;;;;;5093456;28;20600;-56
2021/12/22 01:23:02;;;;;;;14.65;10.45;;;-0.10;99.90;;;;;;5093966;28;20390;-57
2021/12/22 01:25:29;;;;;;;12.37;9.67;;;-0.20;99.90;;;;;;5093412;28;20413;-57
2021/12/22 01:27:54;;;;;;;13.10;10.00;;;-0.20;99.90;;;;;;5092570;28;20626;-57
2021/12/22 01:30:23;;;;;;;12.60;9.77;;;-0.20;99.90;;;;;;5091700;28;20469;-54
2021/12/22 01:32:55;;;;;;;13.23;9.70;;;-0.30;99.90;;;;;;5092552;28;20629;-58
2021/12/22 01:35:24;;;;;;;12.73;9.65;;;-0.20;99.90;;;;;;5091466;28;20630;-57
2021/12/22 01:37:51;;;;;;;11.35;9.32;;;-0.20;99.90;;;;;;5093496;28;20428;-54
2021/12/22 01:40:18;;;;;;;13.13;10.45;;;-0.20;99.90;;;;;;5093276;28;20390;-56
2021/12/22 01:42:44;;;;;;;10.85;8.88;;;-0.30;99.90;;;;;;5090978;28;20485;-55
2021/12/22 01:45:55;;;;;;;11.52;9.15;;;-0.30;99.90;;;;;;5092999;28;20567;-57
2021/12/22 01:51:38;;;;;;;11.30;9.27;;;-0.30;99.90;;;;;;5094467;28;20370;-56
2021/12/22 01:54:08;;;;;;;12.63;9.43;;;-0.20;99.90;;;;;;5094394;28;20401;-55
2021/12/22 01:56:35;;;;;;;10.73;9.13;;;-0.20;99.90;;;;;;5094056;28;20381;-56
2021/12/22 01:59:03;;;;;;;12.93;9.77;;;-0.20;99.90;;;;;;5093575;28;20735;-56
2021/12/22 02:01:32;;;;;;;10.30;9.13;;;-0.20;99.90;;;;;;5093625;28;20413;-53
2021/12/22 02:03:58;;;;;;;11.38;9.05;;;-0.20;99.90;;;;;;5094681;28;20386;-54
2021/12/22 02:06:24;;;;;;;11.13;8.90;;;-0.30;99.90;;;;;;5093951;28;20661;-55
2021/12/22 02:08:52;;;;;;;12.17;9.47;;;-0.20;99.90;;;;;;5093278;28;20405;-52
2021/12/22 02:11:17;;;;;;;12.75;8.93;;;-0.30;99.90;;;;;;5090967;28;20473;-53
2021/12/22 02:13:48;;;;;;;10.73;9.20;;;-0.30;99.90;;;;;;5091665;28;20469;-51
2021/12/22 02:16:16;;;;;;;12.30;8.95;;;-0.40;99.90;;;;;;5091906;28;20386;-55
2021/12/22 02:18:50;;;;;;;12.85;9.82;;;-0.40;99.90;;;;;;5092287;28;20393;-55
2021/12/22 02:21:18;;;;;;;10.00;8.98;;;-0.60;99.90;;;;;;5090885;28;20390;-53
2021/12/22 02:23:44;;;;;;;10.50;8.88;;;-0.70;99.90;;;;;;5091918;28;20401;-55
2021/12/22 02:26:15;;;;;;;11.02;9.05;;;-0.80;99.90;;;;;;5093190;28;20466;-56
2021/12/22 02:28:45;;;;;;;12.50;9.38;;;-0.80;99.90;;;;;;5090724;28;20398;-55
2021/12/22 02:31:15;;;;;;;9.77;8.73;;;-0.70;99.90;;;;;;5092374;28;20804;-53
2021/12/22 02:33:43;;;;;;;10.63;8.57;;;-0.70;99.90;;;;;;5094630;28;20497;-56
2021/12/22 02:36:21;;;;;;;11.27;9.07;;;-0.60;99.90;;;;;;5094653;28;20394;-52
2021/12/22 02:38:54;;;;;;;10.60;8.75;;;-0.60;99.90;;;;;;5094401;28;20790;-55
2021/12/22 02:41:25;;;;;;;10.57;9.25;;;-0.60;99.90;;;;;;5095678;28;20377;-56
2021/12/22 02:43:53;;;;;;;10.30;8.98;;;-0.60;99.90;;;;;;5093847;28;20475;-55
2021/12/22 02:46:24;;;;;;;11.32;9.00;;;-0.70;99.90;;;;;;5091433;28;20410;-56
2021/12/22 02:48:51;;;;;;;11.02;9.30;;;-0.60;99.90;;;;;;5091466;28;20405;-57
2021/12/22 02:51:17;;;;;;;10.17;8.50;;;-0.70;99.90;;;;;;5091690;28;20378;-56
2021/12/22 02:54:00;;;;;;;11.53;8.77;;;-0.60;99.90;;;;;;5093449;28;20428;-55
2021/12/22 02:56:34;;;;;;;10.50;8.95;;;-0.60;99.90;;;;;;5091827;28;20451;-56
2021/12/22 03:04:18;;;;;;;10.57;8.30;;;-0.70;99.90;;;;;;5092177;28;20397;-52
2021/12/22 03:06:58;;;;;;;11.05;8.02;;;-0.70;99.90;;;;;;5091156;28;20401;-55
2021/12/22 03:09:27;;;;;;;10.65;8.52;;;-0.70;99.90;;;;;;5091315;28;20499;-55
2021/12/22 03:11:55;;;;;;;10.48;9.07;;;-0.80;99.90;;;;;;5091896;28;20386;-53
2021/12/22 03:14:21;;;;;;;9.63;8.32;;;-0.80;99.90;;;;;;5090504;28;20849;-54
2021/12/22 03:16:49;;;;;;;11.27;9.45;;;-0.90;99.90;;;;;;5090106;28;20400;-57
2021/12/22 03:19:23;;;;;;;10.02;8.88;;;-1.00;99.90;;;;;;5091987;28;20535;-55
2021/12/22 03:21:52;;;;;;;9.95;8.93;;;-0.90;99.90;;;;;;5091597;28;20389;-56
2021/12/22 03:24:21;;;;;;;11.00;8.90;;;-1.00;99.90;;;;;;5091602;28;20481;-57
2021/12/22 03:26:47;;;;;;;11.10;9.02;;;-1.00;99.90;;;;;;5091760;28;20393;-55
2021/12/22 03:29:16;;;;;;;10.50;9.02;;;-1.00;99.90;;;;;;5093715;28;20644;-53
2021/12/22 03:31:43;;;;;;;11.07;8.77;;;-1.00;99.90;;;;;;5091618;28;20665;-53
2021/12/22 03:34:09;;;;;;;11.18;9.18;;;-1.00;99.90;;;;;;5091967;28;20382;-57
2021/12/22 03:36:36;;;;;;;10.80;9.10;;;-1.10;99.90;;;;;;5093576;28;20415;-55
2021/12/22 03:39:04;;;;;;;10.65;9.15;;;-1.20;99.90;;;;;;5090272;28;20493;-53
2021/12/22 03:41:30;;;;;;;10.77;8.88;;;-1.20;99.90;;;;;;5091537;28;20474;-56
2021/12/22 03:43:56;;;;;;;10.47;8.60;;;-1.30;99.90;;;;;;5091001;28;20482;-53
2021/12/22 03:46:21;;;;;;;11.45;9.38;;;-1.20;99.90;;;;;;5090840;28;20928;-57
2021/12/22 03:48:47;;;;;;;10.48;8.30;;;-1.20;99.90;;;;;;5091361;28;20414;-50
2021/12/22 03:51:12;;;;;;;11.90;9.53;;;-1.30;99.90;;;;;;5090221;28;20437;-52
2021/12/22 03:53:38;;;;;;;10.30;9.20;;;-1.40;99.90;;;;;;5089241;28;20487;-54
2021/12/22 03:56:04;;;;;;;10.85;9.10;;;-1.50;99.90;;;;;;5089563;28;20841;-56
2021/12/22 03:58:30;;;;;;;10.37;9.27;;;-1.40;99.90;;;;;;5089073;28;20552;-55
2021/12/22 04:00:56;;;;;;;10.73;9.60;;;-1.30;99.90;;;;;;5087486;28;20776;-57
2021/12/22 04:03:27;;;;;;;10.93;9.18;;;-1.30;99.90;;;;;;5090696;28;20697;-56
2021/12/22 04:05:52;;;;;;;10.50;8.93;;;-1.30;99.90;;;;;;5091922;28;20417;-57
2021/12/22 04:08:18;;;;;;;11.32;9.27;;;-1.20;99.90;;;;;;5095757;28;20540;-57
2021/12/22 04:10:46;;;;;;;10.18;8.85;;;-1.30;99.90;;;;;;5095211;28;20377;-55
2021/12/22 04:13:12;;;;;;;11.88;9.95;;;-1.30;99.90;;;;;;5094787;28;20435;-53
2021/12/22 04:15:39;;;;;;;10.75;9.10;;;-1.30;99.90;;;;;;5095355;28;20423;-57
2021/12/22 04:18:05;;;;;;;10.82;9.70;;;-1.30;99.90;;;;;;5094847;28;20820;-55
2021/12/22 04:20:30;;;;;;;9.90;8.90;;;-1.40;99.90;;;;;;5096011;28;20788;-57
2021/12/22 04:22:57;;;;;;;11.40;9.90;;;-1.70;99.90;;;;;;5093435;28;20382;-55
2021/12/22 04:25:22;;;;;;;10.27;9.07;;;-1.70;99.90;;;;;;5094958;28;20394;-57
2021/12/22 04:27:55;;;;;;;11.68;10.00;;;-1.60;99.90;;;;;;5095666;28;20440;-56
2021/12/22 04:30:24;;;;;;;11.15;8.82;;;-1.70;99.90;;;;;;5093242;28;20767;-53
2021/12/22 04:32:51;;;;;;;11.32;9.23;;;-1.70;99.90;;;;;;5093213;28;20402;-52
2021/12/22 04:35:17;;;;;;;10.40;9.23;;;-1.60;99.90;;;;;;5092287;28;20374;-54
2021/12/22 04:37:43;;;;;;;10.50;9.35;;;-1.50;99.90;;;;;;5090805;28;20389;-56
2021/12/22 04:40:09;;;;;;;13.32;9.75;;;-1.50;99.90;;;;;;5090329;28;20903;-57
2021/12/22 04:42:35;;;;;;;11.93;9.45;;;-1.60;99.90;;;;;;5091088;28;20397;-50
2021/12/22 04:45:05;;;;;;;10.75;9.18;;;-1.50;99.90;;;;;;5093081;28;20449;-56
2021/12/22 04:47:31;;;;;;;9.77;8.50;;;-1.40;99.90;;;;;;5092511;28;20389;-57
2021/12/22 04:49:56;;;;;;;10.52;9.43;;;-1.50;99.90;;;;;;5093926;28;20873;-55
2021/12/22 04:52:24;;;;;;;10.17;9.03;;;-1.40;99.90;;;;;;5093998;28;20492;-55
2021/12/22 04:55:02;;;;;;;11.63;9.70;;;-1.50;99.90;;;;;;5094086;28;20708;-55
2021/12/22 04:57:29;;;;;;;11.57;9.98;;;-1.50;99.90;;;;;;5092242;28;20384;-56
2021/12/22 04:59:54;;;;;;;10.57;9.48;;;-1.50;99.90;;;;;;5092701;28;20720;-56
2021/12/22 05:02:20;;;;;;;11.27;9.70;;;-1.50;99.90;;;;;;5090322;28;20370;-57
2021/12/22 05:04:46;;;;;;;10.53;9.43;;;-1.60;99.90;;;;;;5089538;28;20793;-55
2021/12/22 05:07:11;;;;;;;11.02;9.55;;;-1.60;99.90;;;;;;5089877;28;20582;-56
2021/12/22 05:09:37;;;;;;;10.40;9.03;;;-1.60;99.90;;;;;;5090356;28;20520;-54
2021/12/22 05:12:03;;;;;;;10.90;9.27;;;-1.70;99.90;;;;;;5090362;28;20378;-56
2021/12/22 05:14:28;;;;;;;10.93;9.20;;;-1.70;99.90;;;;;;5089243;28;20413;-56
2021/12/22 05:16:59;;;;;;;11.40;9.50;;;-1.70;99.90;;;;;;5088488;28;20417;-56
2021/12/22 05:19:25;;;;;;;12.68;10.25;;;-1.70;99.90;;;;;;5088157;28;20709;-55
2021/12/22 05:21:51;;;;;;;10.37;9.07;;;-1.70;99.90;;;;;;5091528;28;20388;-55
2021/12/22 05:24:17;;;;;;;11.10;9.38;;;-1.60;99.90;;;;;;5090825;28;20405;-56
2021/12/22 05:26:43;;;;;;;11.38;9.85;;;-1.70;99.90;;;;;;5091999;28;20390;-53
2021/12/22 05:29:08;;;;;;;10.80;9.50;;;-1.70;99.90;;;;;;5091679;28;20941;-50
2021/12/22 05:31:34;;;;;;;11.50;9.53;;;-1.70;99.90;;;;;;5090440;28;20388;-55
2021/12/22 05:34:00;;;;;;;11.50;9.10;;;-1.80;99.90;;;;;;5089448;28;20449;-55
2021/12/22 05:36:26;;;;;;;12.50;9.77;;;-1.80;99.90;;;;;;5090246;28;20815;-54
2021/12/22 05:38:51;;;;;;;11.75;9.63;;;-1.80;99.90;;;;;;5088716;28;20410;-54
2021/12/22 05:41:17;;;;;;;12.45;9.88;;;-1.70;99.90;;;;;;5087699;28;20394;-56
2021/12/22 05:43:43;;;;;;;12.67;10.17;;;-2.10;99.90;;;;;;5083644;28;20878;-57
2021/12/22 05:46:08;;;;;;;11.70;9.75;;;-2.20;99.90;;;;;;5082521;28;20441;-54
2021/12/22 05:48:34;;;;;;;13.03;10.53;;;-2.10;99.90;;;;;;5085163;28;20424;-56
2021/12/22 05:51:01;;;;;;;12.67;10.50;;;-2.20;99.90;;;;;;5085046;28;20439;-53
2021/12/22 05:53:28;;;;;;;12.73;10.63;;;-2.10;99.90;;;;;;5084193;28;20607;-57
2021/12/22 05:55:54;;;;;;;13.47;10.30;;;-2.20;99.90;;;;;;5084720;28;20705;-57
2021/12/22 05:58:20;;;;;;;12.88;10.32;;;-2.20;99.90;;;;;;5086983;28;20416;-55
2021/12/22 06:00:46;;;;;;;13.93;10.02;;;-2.10;99.90;;;;;;5088505;28;20688;-57
2021/12/22 06:03:12;;;;;;;13.23;9.85;;;-2.00;99.90;;;;;;5086159;28;20400;-57
2021/12/22 06:05:38;;;;;;;14.18;10.50;;;-2.00;99.90;;;;;;5084896;28;20927;-56
2021/12/22 06:08:04;;;;;;;13.02;10.73;;;-1.90;99.90;;;;;;5087694;28;20421;-55
2021/12/22 06:10:31;;;;;;;12.15;10.00;;;-1.80;99.90;;;;;;5089143;28;20432;-55
2021/12/22 06:12:56;;;;;;;14.40;10.15;;;-1.70;99.90;;;;;;5087599;28;20386;-54
2021/12/22 06:15:22;;;;;;;12.38;10.40;;;-1.70;99.90;;;;;;5087569;28;20417;-57
2021/12/22 06:17:53;;;;;;;11.20;9.02;;;-1.80;99.90;;;;;;5087713;28;20382;-56
2021/12/22 06:20:19;;;;;;;11.70;9.63;;;-1.70;99.90;;;;;;5088720;28;20482;-57
2021/12/22 06:22:44;;;;;;;11.67;9.37;;;-1.70;99.90;;;;;;5087633;28;20762;-57
2021/12/22 06:25:10;;;;;;;14.00;10.50;;;-1.70;99.90;;;;;;5084754;28;20643;-55
2021/12/22 06:27:36;;;;;;;11.32;9.80;;;-1.80;99.90;;;;;;5082674;28;20647;-53
2021/12/22 06:30:02;;;;;;;12.40;10.05;;;-2.00;99.90;;;;;;5085790;28;20409;-55
2021/12/22 06:32:27;;;;;;;13.13;10.38;;;-2.30;99.90;;;;;;5084360;28;20684;-57
2021/12/22 06:34:53;;;;;;;14.80;10.83;;;-2.30;99.90;;;;;;5084141;28;20487;-55
2021/12/22 06:37:18;;;;;;;13.40;10.52;;;-2.20;99.90;;;;;;5083224;28;20665;-56
2021/12/22 06:39:44;;;;;;;12.60;10.43;;;-2.20;99.90;;;;;;5083051;28;20437;-55
2021/12/22 06:42:09;;;;;;;12.80;9.97;;;-2.10;99.90;;;;;;5085571;28;20385;-58
2021/12/22 06:44:35;;;;;;;14.43;11.13;;;-2.00;99.90;;;;;;5084845;28;20431;-56
2021/12/22 06:47:01;;;;;;;14.00;11.50;;;-2.10;99.90;;;;;;5084296;28;20699;-58
2021/12/22 06:49:26;;;;;;;14.88;10.82;;;-2.00;99.90;;;;;;5084123;28;20819;-56
2021/12/22 06:51:52;;;;;;;16.95;12.02;;;-2.10;99.90;;;;;;5084037;28;20382;-55
2021/12/22 06:54:18;;;;;;;15.65;12.00;;;-2.10;99.90;;;;;;5085516;28;20402;-53
2021/12/22 06:56:43;;;;;;;18.92;12.50;;;-2.10;99.90;;;;;;5085965;28;20669;-57
2021/12/22 06:59:12;;;;;;;16.10;11.77;;;-2.00;99.90;;;;;;5085618;28;20394;-55
2021/12/22 07:01:38;;;;;;;15.82;11.80;;;-2.00;99.90;;;;;;5084390;28;20519;-56
2021/12/22 07:04:03;;;;;;;19.10;13.30;;;-1.90;99.90;;;;;;5086355;28;20493;-55
2021/12/22 07:06:30;;;;;;;17.90;12.27;;;-2.00;99.90;;;;;;5085839;28;20393;-56
2021/12/22 07:08:56;;;;;;;17.50;13.30;;;-2.10;99.90;;;;;;5084194;28;20920;-57
2021/12/22 07:11:22;;;;;;;18.90;13.63;;;-2.20;99.90;;;;;;5081808;28;20466;-55
2021/12/22 07:13:48;;;;;;;21.98;14.05;;;-2.20;99.90;;;;;;5080760;28;20382;-55
2021/12/22 07:16:14;;;;;;;19.33;13.48;;;-2.10;99.90;;;;;;5081416;28;20386;-55
2021/12/22 07:18:40;;;;;;;22.33;13.90;;;-2.10;99.90;;;;;;5082794;28;20374;-57
2021/12/22 07:21:05;;;;;;;19.23;14.23;;;-2.20;99.90;;;;;;5082644;28;20462;-56
2021/12/22 07:23:31;;;;;;;22.93;14.63;;;-2.30;99.90;;;;;;5081251;28;20382;-57
2021/12/22 07:25:56;;;;;;;19.80;14.18;;;-2.30;99.90;;;;;;5085474;28;20574;-58
2021/12/22 07:28:22;;;;;;;23.08;15.27;;;-2.20;99.90;;;;;;5085430;28;20472;-57
2021/12/22 07:30:47;;;;;;;21.13;15.30;;;-2.10;99.90;;;;;;5085885;28;20517;-57
2021/12/22 07:33:13;;;;;;;19.30;14.60;;;-2.10;99.90;;;;;;5086864;28;20380;-57
2021/12/22 07:35:42;;;;;;;21.20;15.48;;;-2.10;99.90;;;;;;5085082;28;20701;-55
2021/12/22 07:38:30;;;;;;;23.58;15.38;;;-2.00;99.90;;;;;;5084252;28;20381;-53
2021/12/22 07:40:56;;;;;;;24.20;16.15;;;-2.00;99.90;;;;;;5086922;28;20389;-57
2021/12/22 07:43:22;;;;;;;20.92;15.30;;;-2.00;99.90;;;;;;5087691;28;20926;-57
2021/12/22 07:45:48;;;;;;;22.13;15.47;;;-1.90;99.90;;;;;;5088641;28;20583;-57
2021/12/22 07:48:14;;;;;;;24.63;16.27;;;-1.90;99.90;;;;;;5087788;28;20409;-57
2021/12/22 07:50:40;;;;;;;22.43;15.80;;;-2.10;99.90;;;;;;5086140;28;20510;-54
2021/12/22 07:53:05;;;;;;;20.13;14.30;;;-2.00;99.90;;;;;;5087019;28;20405;-58
2021/12/22 07:55:31;;;;;;;20.37;14.03;;;-2.00;99.90;;;;;;5087615;28;20462;-55
2021/12/22 07:57:56;;;;;;;22.05;15.77;;;-1.90;99.90;;;;;;5088546;28;20754;-57
2021/12/22 08:00:22;;;;;;;21.40;15.82;;;-1.80;99.90;;;;;;5086978;28;20398;-57
2021/12/22 08:02:48;;;;;;;22.73;16.85;;;-1.80;99.90;;;;;;5087581;28;20378;-57
2021/12/22 08:05:14;;;;;;;25.10;17.13;;;-2.10;99.90;;;;;;5088443;28;20404;-58
2021/12/22 08:07:39;;;;;;;24.52;16.33;;;-2.30;99.90;;;;;;5089395;28;21064;-56
2021/12/22 08:10:06;;;;;;;24.05;16.88;;;-2.30;99.90;;;;;;5087304;28;20418;-57
2021/12/22 08:12:33;;;;;;;24.02;16.25;;;-2.30;99.90;;;;;;5088098;28;20385;-57
2021/12/22 08:14:58;;;;;;;25.70;17.33;;;-2.30;99.90;;;;;;5088401;28;20395;-58
2021/12/22 08:17:27;;;;;;;27.67;18.30;;;-2.30;99.90;;;;;;5086271;28;20381;-55
2021/12/22 08:19:54;;;;;;;27.00;17.87;;;-2.40;99.90;;;;;;5087193;28;20386;-57
2021/12/22 08:22:20;;;;;;;25.57;16.90;;;-2.30;99.90;;;;;;5085656;28;20397;-58
2021/12/22 08:24:45;;;;;;;27.42;18.00;;;-2.30;99.90;;;;;;5080768;28;20432;-57
2021/12/22 08:27:11;;;;;;;26.80;17.50;;;-2.40;99.90;;;;;;5081820;28;20382;-55
2021/12/22 08:29:42;;;;;;;28.45;18.55;;;-2.30;99.90;;;;;;5080630;28;20761;-55
2021/12/22 08:32:09;;;;;;;27.25;18.38;;;-2.50;99.90;;;;;;5080434;28;20794;-57
2021/12/22 08:34:38;;;;;;;28.15;18.40;;;-2.80;99.90;;;;;;5082351;28;20388;-58
2021/12/22 08:39:49;;;;;;;29.40;19.15;;;-2.90;99.90;;;;;;5083899;28;20606;-55
2021/12/22 08:42:15;;;;;;;27.05;18.65;;;-2.80;99.90;;;;;;5081762;28;20594;-58
2021/12/22 08:44:41;;;;;;;25.23;17.17;;;-2.70;99.90;;;;;;5081924;28;20663;-58
2021/12/22 08:47:07;;;;;;;27.67;18.27;;;-2.50;99.90;;;;;;5085328;28;20421;-53
2021/12/22 08:49:33;;;;;;;25.60;16.85;;;-2.50;99.90;;;;;;5087515;28;21002;-58
2021/12/22 08:52:02;;;;;;;22.70;15.32;;;-2.40;99.90;;;;;;5089824;28;20394;-58
2021/12/22 08:54:27;;;;;;;24.70;16.60;;;-2.20;99.90;;;;;;5091871;28;20397;-58
2021/12/22 08:56:55;;;;;;;22.27;15.43;;;-2.20;99.90;;;;;;5091217;28;20505;-58
2021/12/22 08:59:21;;;;;;;26.07;16.60;;;-2.40;99.90;;;;;;5089571;28;20378;-56
2021/12/22 09:01:48;;;;;;;29.52;19.27;;;-2.50;99.90;;;;;;5090267;28;20401;-56
2021/12/22 09:04:14;;;;;;;25.73;16.95;;;-2.40;99.90;;;;;;5091655;28;20382;-59
2021/12/22 09:06:40;;;;;;;27.92;17.88;;;-2.70;99.90;;;;;;5092082;28;20389;-55
2021/12/22 09:09:07;;;;;;;25.90;16.98;;;-2.60;99.90;;;;;;5090280;28;20427;-58
2021/12/22 09:11:33;;;;;;;27.10;17.30;;;-2.60;99.90;;;;;;5089358;28;20377;-57
2021/12/22 09:13:59;;;;;;;27.33;16.67;;;-2.60;99.90;;;;;;5090148;28;20389;-59
2021/12/22 09:16:24;;;;;;;26.33;16.90;;;-2.60;99.90;;;;;;5087990;28;20374;-59
2021/12/22 09:18:51;;;;;;;27.23;17.97;;;-2.50;99.90;;;;;;5087617;28;20392;-59
2021/12/22 09:21:17;;;;;;;26.95;17.52;;;-2.40;99.90;;;;;;5089229;28;20382;-59
2021/12/22 09:23:43;;;;;;;26.60;16.80;;;-2.60;99.90;;;;;;5086832;28;20385;-59
2021/12/22 09:26:09;;;;;;;27.07;17.20;;;-2.50;99.90;;;;;;5091021;28;20470;-59
2021/12/22 09:28:35;;;;;;;27.92;17.48;;;-2.50;99.90;;;;;;5091587;28;20408;-59
2021/12/22 09:31:01;;;;;;;25.55;16.83;;;-2.60;99.90;;;;;;5091970;28;20381;-55
2021/12/22 09:33:27;;;;;;;26.63;17.50;;;-2.50;99.90;;;;;;5091644;28;21008;-59
2021/12/22 09:35:53;;;;;;;24.60;16.43;;;-2.30;99.90;;;;;;5092646;28;21033;-59
2021/12/22 09:38:19;;;;;;;26.25;17.30;;;-2.30;99.90;;;;;;5091382;28;20390;-59
2021/12/22 09:40:46;;;;;;;28.40;17.88;;;-2.40;99.90;;;;;;5091438;28;20829;-59
2021/12/22 09:43:12;;;;;;;26.47;16.53;;;-2.50;99.90;;;;;;5103744;28;20387;-59
2021/12/22 09:45:45;;;;;;;26.65;17.70;;;-2.40;99.90;;;;;;5111393;28;20404;-59
2021/12/22 09:50:49;;;;;;;26.40;16.77;;;-2.10;99.90;;;;;;5111477;28;21183;-58
2021/12/22 09:53:19;;;;;;;23.98;16.40;;;-2.00;99.90;;;;;;5110340;28;20387;-57
2021/12/22 09:55:45;;;;;;;27.70;18.83;;;-2.20;99.90;;;;;;5110039;28;20653;-59
2021/12/22 09:58:11;;;;;;;28.25;17.55;;;-2.30;99.90;;;;;;5111195;28;20893;-59
2021/12/22 10:00:37;;;;;;;25.30;17.27;;;-2.40;99.90;;;;;;5111669;28;20396;-58
2021/12/22 10:03:05;;;;;;;30.08;17.92;;;-2.20;99.90;;;;;;5112863;28;20471;-58
2021/12/22 10:05:31;;;;;;;25.08;16.65;;;-2.20;99.90;;;;;;5114836;28;20384;-57
2021/12/22 10:08:20;;;;;;;29.20;17.52;;;-2.00;99.90;;;;;;5114400;28;20376;-57
2021/12/22 10:11:07;;;;;;;25.67;17.23;;;-1.90;99.90;;;;;;5114730;28;20396;-55
2021/12/22 10:13:34;;;;;;;27.73;17.75;;;-2.10;99.90;;;;;;5098137;28;20474;-57
2021/12/22 10:16:08;;;;;;;25.92;17.27;;;-2.40;99.90;;;;;;5092826;28;20370;-59
2021/12/22 10:18:34;;;;;;;25.60;17.77;;;-2.30;99.90;;;;;;5092249;28;20382;-58
2021/12/22 10:21:18;;;;;;;29.50;18.90;;;-2.20;99.90;;;;;;5091800;28;20393;-59
2021/12/22 10:23:47;;;;;;;29.80;19.47;;;-2.30;99.90;;;;;;5092448;28;20398;-58
2021/12/22 10:26:18;;;;;;;28.52;18.35;;;-2.10;99.90;;;;;;5096460;28;20437;-59
2021/12/22 10:28:48;;;;;;;31.33;19.17;;;-2.20;99.90;;;;;;5113048;28;20392;-59
2021/12/22 10:31:16;;;;;;;26.67;17.63;;;-2.30;99.90;;;;;;5112089;28;20364;-58
2021/12/22 10:33:42;;;;;;;31.03;19.20;;;-2.40;99.90;;;;;;5112815;28;20448;-59
2021/12/22 10:36:13;;;;;;;30.15;17.92;;;-2.40;99.90;;;;;;5112015;28;20376;-59
2021/12/22 10:38:39;;;;;;;28.10;18.30;;;-2.50;99.90;;;;;;5111638;28;20404;-59
2021/12/22 10:41:11;;;;;;;32.35;20.00;;;-2.60;99.90;;;;;;5110543;28;20387;-59
2021/12/22 10:43:42;;;;;;;29.55;18.08;;;-2.60;99.90;;;;;;5109377;28;20372;-59
2021/12/22 10:46:14;;;;;;;28.65;18.60;;;-2.50;99.90;;;;;;5109934;28;20502;-59
2021/12/22 10:51:31;;;;;;;25.08;17.23;;;-2.30;99.90;;;;;;5106802;28;21334;-59
2021/12/22 10:53:58;;;;;;;25.67;16.98;;;-2.20;99.90;;;;;;5069134;28;20399;-59
2021/12/22 10:56:30;;;;;;;28.23;17.37;;;-2.00;99.90;;;;;;5067522;28;20457;-59
2021/12/22 10:59:19;;;;;;;26.38;17.55;;;-2.10;99.90;;;;;;5068983;28;20380;-59
2021/12/22 11:01:54;;;;;;;25.05;17.02;;;-2.10;99.90;;;;;;5062478;28;20383;-59
2021/12/22 11:04:24;;;;;;;28.63;18.38;;;-2.00;99.90;;;;;;5068470;28;20391;-59
2021/12/22 11:06:53;;;;;;;27.33;17.55;;;-1.90;99.90;;;;;;5067907;28;20384;-57
2021/12/22 11:09:20;;;;;;;28.63;17.95;;;-1.80;99.90;;;;;;5066743;28;20411;-59
2021/12/22 11:12:00;;;;;;;28.88;18.42;;;-1.70;99.90;;;;;;5067573;28;20384;-59
2021/12/22 11:14:27;;;;;;;28.00;18.55;;;-1.60;99.90;;;;;;5068018;28;20873;-59
2021/12/22 11:16:59;;;;;;;27.70;18.95;;;-1.40;99.90;;;;;;5065947;28;20403;-59
2021/12/22 11:19:30;;;;;;;28.03;18.37;;;-1.30;99.90;;;;;;5066442;28;20674;-59
2021/12/22 11:22:13;;;;;;;30.20;19.73;;;-1.50;99.90;;;;;;5066318;28;20452;-57
2021/12/22 11:24:42;;;;;;;25.40;17.17;;;-1.70;99.90;;;;;;5064874;28;20403;-59
2021/12/22 11:27:09;;;;;;;26.98;19.15;;;-1.60;99.90;;;;;;5063775;28;20403;-59
2021/12/22 11:29:38;;;;;;;26.05;17.52;;;-1.60;99.90;;;;;;5065338;28;20399;-60
2021/12/22 11:32:05;;;;;;;32.08;19.98;;;-1.60;99.90;;;;;;5065690;28;20379;-59
2021/12/22 11:34:35;;;;;;;30.92;20.02;;;-1.40;99.90;;;;;;5064474;28;20455;-59
2021/12/22 11:37:04;;;;;;;30.48;19.25;;;-1.70;99.90;;;;;;5069151;28;20413;-59
2021/12/22 11:39:31;;;;;;;32.78;20.52;;;-1.80;99.90;;;;;;5069672;28;20468;-58
2021/12/22 11:41:59;;;;;;;31.48;20.48;;;-2.00;99.90;;;;;;5070600;28;20384;-59
2021/12/22 11:44:30;;;;;;;26.23;17.98;;;-1.80;99.90;;;;;;5070082;28;20395;-59
2021/12/22 11:47:00;;;;;;;26.83;18.83;;;-1.60;99.90;;;;;;5068883;28;20415;-60
2021/12/22 11:49:27;;;;;;;29.83;19.80;;;-1.40;99.90;;;;;;5069354;28;20951;-56
2021/12/22 11:51:53;;;;;;;31.25;21.35;;;-1.40;99.90;;;;;;5067843;28;20437;-59
2021/12/22 11:54:27;;;;;;;32.63;21.50;;;-1.60;99.90;;;;;;5066452;28;20438;-59
2021/12/22 11:56:55;;;;;;;34.53;21.80;;;-1.90;99.90;;;;;;5067062;28;20487;-60
2021/12/22 11:59:33;;;;;;;34.27;22.10;;;-1.90;99.90;;;;;;5066943;28;20387;-59
2021/12/22 12:02:18;;;;;;;33.30;20.88;;;-2.00;99.90;;;;;;5067227;28;20386;-59
2021/12/22 12:04:44;;;;;;;30.83;19.70;;;-1.80;99.90;;;;;;5065019;28;20383;-60
2021/12/22 12:07:10;;;;;;;33.30;21.75;;;-1.60;99.90;;;;;;5066978;28;20380;-59
2021/12/22 12:09:46;;;;;;;31.15;20.90;;;-1.60;99.90;;;;;;5067155;28;20471;-60
2021/12/22 12:12:52;;;;;;;31.30;20.38;;;-1.50;99.90;;;;;;5068585;28;20440;-59
2021/12/22 12:16:03;;;;;;;28.38;19.55;;;-1.50;99.90;;;;;;5069187;28;20398;-60
2021/12/22 12:22:07;;;;;;;32.58;20.83;;;-1.50;99.90;;;;;;5065918;28;20347;-58
2021/12/22 12:24:47;;;;;;;30.95;20.33;;;-1.40;99.90;;;;;;5083839;28;20961;-59
2021/12/22 12:27:50;;;;;;;27.27;18.73;;;-1.40;99.90;;;;;;5109308;28;20435;-59
2021/12/22 12:30:19;;;;;;;29.73;20.58;;;-1.40;99.90;;;;;;5109424;28;20407;-58
2021/12/22 12:32:50;;;;;;;28.65;19.73;;;-1.30;99.90;;;;;;5108910;28;20383;-59
2021/12/22 12:38:01;;;;;;;29.30;20.73;;;-1.20;99.90;;;;;;5111420;28;20471;-59
2021/12/22 12:40:55;;;;;;;32.10;21.33;;;-1.30;99.90;;;;;;5112661;28;20380;-59
2021/12/22 12:43:42;;;;;;;32.63;21.70;;;-1.40;99.90;;;;;;5113580;28;20803;-59
2021/12/22 12:46:20;;;;;;;31.55;20.85;;;-1.40;99.90;;;;;;5114852;28;20415;-59
2021/12/22 12:48:54;;;;;;;29.40;21.00;;;-1.30;99.90;;;;;;5114158;28;20415;-59
2021/12/22 12:51:32;;;;;;;29.55;20.23;;;-1.30;99.90;;;;;;5112364;28;20376;-59
2021/12/22 12:54:00;;;;;;;29.20;19.98;;;-1.30;99.90;;;;;;5113926;28;20956;-60
2021/12/22 12:56:40;;;;;;;34.15;21.23;;;-1.30;99.90;;;;;;5114351;28;20453;-59
2021/12/22 12:59:18;;;;;;;29.07;19.90;;;-1.40;99.90;;;;;;5114646;28;20380;-59
2021/12/22 13:01:46;;;;;;;31.45;20.90;;;-1.30;99.90;;;;;;5113323;28;20376;-58